Sahiwal, Pakistan
Current Conditions -  °F | °C
As of 1:25 AM on Friday 30 Jan 2015 (Local Time) from OPLA Reporting Station
Smoke Smoke  
Wind Chill: 48°   Ceiling: Unl
Heat Index: 48°   Visibility: 3mi
Dew Point: 41°   Wind: 0mph
Humidity: 76%   Direction: NA
Pressure: NA   Gusts: NA
Location:  30.67°N, 73.11°E
Report Text: OPLA 292025Z 00000KT 5000 FU NSC 09/05 Q1022/A30.18
Loading
Personal Weather Stations






























Interactive Weather Map New forecast layout! Learn more

10-Day Weather Forecast

Advertisements
Track Severe Weather on mobile